Time;durP1;ratioP1;P1;durP2;ratioP2;P2;SDS_P1;SDS_P2;PMS_P1;PMS_P2;Temp;Humidity;BMP_temperature;BMP_pressure;BME280_temperature;BME280_humidity;BME280_pressure;Samples;Min_cycle;Max_cycle;Signal;HPM_P1;HPM_P2
2023/05/15 00:02:17;;;;;;;3.47;3.27;;;;;;;16.46;64.64;99962.69;5041602;28;20395;-73
2023/05/15 00:04:42;;;;;;;3.40;3.10;;;;;;;16.39;64.70;99971.25;5039973;28;20760;-73
2023/05/15 00:07:07;;;;;;;3.40;3.20;;;;;;;16.36;65.05;99982.78;5042102;28;20882;-73
2023/05/15 00:09:32;;;;;;;3.20;3.00;;;;;;;16.35;65.21;99981.16;5036948;28;20402;-72
2023/05/15 00:11:58;;;;;;;3.33;3.03;;;;;;;16.36;65.29;99977.31;5041425;28;20913;-72
2023/05/15 00:14:23;;;;;;;4.30;3.30;;;;;;;16.34;65.12;99976.78;5041554;28;20475;-73
2023/05/15 00:16:49;;;;;;;3.30;3.10;;;;;;;16.33;65.26;99988.84;5031211;28;20401;-72
2023/05/15 00:19:15;;;;;;;3.80;3.42;;;;;;;16.32;65.24;99986.41;5039616;28;20777;-73
2023/05/15 00:21:40;;;;;;;3.45;3.20;;;;;;;16.29;65.19;99986.97;5037189;28;20405;-73
2023/05/15 00:24:05;;;;;;;3.60;3.10;;;;;;;16.29;64.99;99987.81;5044085;28;20736;-73
2023/05/15 00:26:31;;;;;;;3.10;2.83;;;;;;;16.16;65.52;99991.25;5025869;28;20424;-72
2023/05/15 00:28:56;;;;;;;3.10;2.87;;;;;;;16.12;65.61;99992.94;5040795;28;20394;-73
2023/05/15 00:31:21;;;;;;;3.13;3.00;;;;;;;16.03;65.96;99991.97;5040698;28;20750;-73
2023/05/15 00:33:47;;;;;;;3.80;3.50;;;;;;;16.02;65.86;99990.34;5035865;28;20421;-73
2023/05/15 00:36:12;;;;;;;3.40;3.20;;;;;;;16.01;65.69;99985.97;5043162;28;20966;-73
2023/05/15 00:38:37;;;;;;;3.93;3.47;;;;;;;16.13;65.27;99996.50;5039901;28;20951;-73
2023/05/15 00:41:05;;;;;;;3.63;3.33;;;;;;;16.19;65.00;99993.41;5039688;28;20898;-73
2023/05/15 00:43:30;;;;;;;4.15;3.20;;;;;;;16.24;65.14;99995.25;5041315;28;20885;-73
2023/05/15 00:45:56;;;;;;;3.53;3.33;;;;;;;16.25;64.70;99992.22;5044213;28;20395;-73
2023/05/15 00:48:24;;;;;;;3.60;3.40;;;;;;;16.20;64.93;99991.50;5040338;28;20405;-73
2023/05/15 00:50:50;;;;;;;3.92;3.63;;;;;;;16.12;65.26;99981.19;5040178;28;20399;-73
2023/05/15 00:53:16;;;;;;;3.65;3.45;;;;;;;16.00;65.69;99982.41;5039272;28;20414;-73
2023/05/15 00:55:45;;;;;;;6.25;3.85;;;;;;;15.78;66.32;99987.59;5044133;28;20394;-73
2023/05/15 00:58:13;;;;;;;4.60;3.22;;;;;;;15.73;66.69;99987.66;5041638;28;20938;-72
2023/05/15 01:00:38;;;;;;;3.30;3.10;;;;;;;15.72;66.80;99994.22;5034944;28;20449;-73
2023/05/15 01:03:04;;;;;;;5.40;3.20;;;;;;;15.72;66.52;99988.75;5040273;28;20776;-73
2023/05/15 01:05:30;;;;;;;4.75;3.70;;;;;;;15.80;66.32;99995.50;5039182;28;20861;-73
2023/05/15 01:08:07;;;;;;;3.78;3.35;;;;;;;15.87;65.91;99994.03;5041646;28;20398;-73
2023/05/15 01:10:34;;;;;;;4.30;3.90;;;;;;;15.80;66.55;99996.34;5039921;28;20783;-73
2023/05/15 01:13:01;;;;;;;4.78;3.90;;;;;;;15.71;66.73;99989.06;5040685;28;20419;-73
2023/05/15 01:15:27;;;;;;;4.45;4.05;;;;;;;15.77;66.74;99996.09;5043669;28;20390;-73
2023/05/15 01:17:52;;;;;;;4.22;3.90;;;;;;;15.82;66.58;99994.13;5041102;28;20405;-73
2023/05/15 01:20:19;;;;;;;4.10;3.80;;;;;;;15.74;66.78;99996.69;5022798;28;20388;-73
2023/05/15 01:23:03;;;;;;;4.10;3.80;;;;;;;15.74;66.84;100002.16;5004217;28;20470;-73
2023/05/15 01:25:31;;;;;;;3.92;3.72;;;;;;;15.81;66.55;99999.84;5043213;28;20393;-72
2023/05/15 01:28:08;;;;;;;4.10;3.80;;;;;;;15.85;66.29;100006.38;5038323;28;20395;-73
2023/05/15 01:30:37;;;;;;;4.25;3.85;;;;;;;15.91;66.36;100002.47;5039587;28;20431;-72
2023/05/15 01:33:02;;;;;;;4.22;3.90;;;;;;;15.99;66.22;100004.59;5030875;28;21076;-73
2023/05/15 01:35:45;;;;;;;4.80;4.30;;;;;;;16.08;65.70;100003.66;5032292;28;20402;-73
2023/05/15 01:38:49;;;;;;;3.75;3.45;;;;;;;16.13;65.54;100008.25;5033450;28;20391;-73
2023/05/15 01:41:44;;;;;;;4.03;3.72;;;;;;;16.03;65.75;100002.91;5024503;28;20900;-73
2023/05/15 01:44:19;;;;;;;3.80;3.53;;;;;;;16.01;65.82;99997.72;5039363;28;20398;-73
2023/05/15 01:46:47;;;;;;;3.70;3.40;;;;;;;16.02;65.65;100007.53;5042079;28;20443;-73
2023/05/15 01:49:16;;;;;;;4.22;3.55;;;;;;;16.02;65.49;99998.53;5039703;28;20493;-73
2023/05/15 01:51:44;;;;;;;3.90;3.63;;;;;;;16.01;65.83;100002.34;5035990;28;20484;-73
2023/05/15 01:54:12;;;;;;;4.40;4.10;;;;;;;16.01;65.70;100005.09;5037711;28;20403;-73
2023/05/15 01:56:39;;;;;;;4.13;3.78;;;;;;;15.98;65.88;100013.88;5045645;28;20409;-73
2023/05/15 01:59:06;;;;;;;3.58;3.28;;;;;;;15.97;66.08;100007.59;5041413;28;20394;-73
2023/05/15 02:01:32;;;;;;;4.45;3.45;;;;;;;15.96;66.13;100010.63;5037378;28;20441;-73
2023/05/15 02:04:00;;;;;;;4.90;3.80;;;;;;;15.94;66.16;99997.25;5039085;28;20735;-73
2023/05/15 02:06:26;;;;;;;3.90;3.60;;;;;;;15.92;66.16;100007.66;5042406;28;20386;-73
2023/05/15 02:08:53;;;;;;;5.67;4.10;;;;;;;15.90;66.69;100001.69;5037198;28;20402;-73
2023/05/15 02:11:19;;;;;;;4.55;3.60;;;;;;;15.87;66.56;100004.19;5030645;28;20449;-73
2023/05/15 02:13:45;;;;;;;4.22;3.88;;;;;;;15.72;66.86;99998.88;5031774;28;20913;-73
2023/05/15 02:16:10;;;;;;;4.25;3.95;;;;;;;15.60;67.28;99993.00;5041662;28;20397;-72
2023/05/15 02:18:36;;;;;;;4.40;3.70;;;;;;;15.64;67.14;99991.31;5032753;28;20405;-73
2023/05/15 02:21:01;;;;;;;3.80;3.60;;;;;;;15.58;67.38;99998.75;5037040;28;20812;-72
2023/05/15 02:23:27;;;;;;;4.40;4.00;;;;;;;15.54;67.34;99998.50;5038623;28;20438;-73
2023/05/15 02:26:20;;;;;;;4.67;3.83;;;;;;;15.49;67.59;99993.09;5038313;28;20487;-73
2023/05/15 02:29:22;;;;;;;3.80;3.58;;;;;;;15.53;67.48;99987.88;5039120;28;20457;-73
2023/05/15 02:32:18;;;;;;;4.13;3.73;;;;;;;15.57;67.36;99987.03;5040372;28;20719;-73
2023/05/15 02:34:47;;;;;;;3.97;3.67;;;;;;;15.55;67.22;99983.75;5038140;28;20910;-73
2023/05/15 02:37:17;;;;;;;3.90;3.60;;;;;;;15.58;67.08;99991.38;5036885;28;20421;-73
2023/05/15 02:39:44;;;;;;;3.97;3.67;;;;;;;15.57;67.42;99981.56;5040063;28;20426;-73
2023/05/15 02:42:12;;;;;;;3.78;3.58;;;;;;;15.56;67.49;99979.09;5035445;28;20402;-73
2023/05/15 02:44:40;;;;;;;4.10;3.80;;;;;;;15.53;67.54;99980.50;5038348;28;20391;-73
2023/05/15 02:47:07;;;;;;;3.90;3.70;;;;;;;15.49;67.53;99982.19;5038411;28;20925;-73
2023/05/15 02:49:32;;;;;;;4.00;3.70;;;;;;;15.43;67.63;99979.75;5040560;28;20413;-73
2023/05/15 02:51:57;;;;;;;3.92;3.58;;;;;;;15.39;67.80;99979.50;5039244;28;20498;-73
2023/05/15 02:54:23;;;;;;;3.87;3.63;;;;;;;15.37;67.89;99972.72;5038362;28;20817;-73
2023/05/15 02:56:48;;;;;;;4.47;4.07;;;;;;;15.39;67.62;99978.69;5038180;28;20395;-72
2023/05/15 02:59:18;;;;;;;4.03;3.72;;;;;;;15.44;67.50;99982.19;5039057;28;20475;-73
2023/05/15 03:01:43;;;;;;;4.43;3.88;;;;;;;15.41;67.92;99985.50;5041867;28;20393;-72
2023/05/15 03:04:09;;;;;;;3.67;3.47;;;;;;;15.30;67.93;99994.06;5038935;28;20739;-73
2023/05/15 03:06:34;;;;;;;4.18;3.88;;;;;;;15.24;68.28;99985.13;5035342;28;20472;-73
2023/05/15 03:09:00;;;;;;;4.23;3.90;;;;;;;15.25;68.24;99992.19;5033568;28;20419;-73
2023/05/15 03:11:25;;;;;;;4.87;4.43;;;;;;;15.21;68.35;99987.63;5041774;28;20878;-73
2023/05/15 03:13:50;;;;;;;3.93;3.63;;;;;;;15.21;68.41;99998.53;5039748;28;20417;-73
2023/05/15 03:16:15;;;;;;;3.90;3.70;;;;;;;15.20;68.02;99989.53;5033690;28;20943;-73
2023/05/15 03:18:41;;;;;;;4.03;3.73;;;;;;;15.18;68.49;99985.47;5037897;28;20402;-73
2023/05/15 03:21:06;;;;;;;4.43;4.03;;;;;;;15.18;68.51;99985.47;5041021;28;20472;-73
2023/05/15 03:23:31;;;;;;;4.00;3.80;;;;;;;15.22;68.37;99983.75;5033804;28;20937;-73
2023/05/15 03:25:57;;;;;;;5.10;4.10;;;;;;;15.17;68.62;99992.00;5037893;28;20395;-73
2023/05/15 03:28:22;;;;;;;4.77;4.40;;;;;;;15.08;68.97;99987.16;5037918;28;20515;-73
2023/05/15 03:30:47;;;;;;;4.60;4.30;;;;;;;14.89;69.38;99986.22;5035997;28;20463;-73
2023/05/15 03:33:12;;;;;;;4.70;4.30;;;;;;;14.86;70.02;99977.78;5045408;28;20425;-73
2023/05/15 03:35:38;;;;;;;4.55;4.15;;;;;;;14.79;69.96;99983.56;5013800;28;20420;-73
2023/05/15 03:38:03;;;;;;;5.17;4.33;;;;;;;14.76;70.21;99988.78;5035216;28;20944;-73
2023/05/15 03:40:28;;;;;;;4.27;3.97;;;;;;;14.79;70.31;99989.03;5040929;28;20415;-73
2023/05/15 03:42:54;;;;;;;5.00;4.53;;;;;;;14.70;70.52;99990.72;5041090;28;20570;-73
2023/05/15 03:45:20;;;;;;;4.73;4.23;;;;;;;14.64;70.32;99994.59;5043443;28;20378;-73
2023/05/15 03:47:45;;;;;;;4.72;4.32;;;;;;;14.70;70.21;99996.19;5040693;28;20395;-74
2023/05/15 03:50:10;;;;;;;4.07;3.80;;;;;;;14.78;70.08;99994.78;5034819;28;20384;-73
2023/05/15 03:52:36;;;;;;;4.47;4.17;;;;;;;14.85;69.77;99996.06;5044753;28;20470;-73
2023/05/15 03:55:01;;;;;;;4.93;4.53;;;;;;;14.87;70.07;100002.06;5039226;28;20957;-73
2023/05/15 03:57:27;;;;;;;4.70;4.40;;;;;;;14.90;70.08;99993.31;5039243;28;20461;-73
2023/05/15 03:59:52;;;;;;;5.00;4.60;;;;;;;14.97;69.59;99993.00;5041467;28;20409;-73
2023/05/15 04:02:17;;;;;;;5.87;4.30;;;;;;;15.02;69.48;99992.94;5042207;28;20397;-73
2023/05/15 04:04:43;;;;;;;6.10;4.60;;;;;;;15.05;69.38;99992.38;5043719;28;20401;-73
2023/05/15 04:07:09;;;;;;;4.47;4.18;;;;;;;15.07;69.07;99991.00;5036828;28;20887;-73
2023/05/15 04:09:34;;;;;;;4.70;4.30;;;;;;;14.97;69.60;100001.19;5041006;28;20486;-73
2023/05/15 04:11:59;;;;;;;4.37;4.00;;;;;;;14.88;69.81;99998.25;5030727;28;20762;-73
2023/05/15 04:14:24;;;;;;;4.10;3.80;;;;;;;14.72;70.30;99998.66;5043493;28;20389;-73
2023/05/15 04:16:50;;;;;;;4.80;4.40;;;;;;;14.68;70.51;100006.56;5037740;28;20407;-73
2023/05/15 04:19:15;;;;;;;4.23;3.93;;;;;;;14.71;70.50;100007.91;5032185;28;20422;-73
2023/05/15 04:21:40;;;;;;;4.80;4.40;;;;;;;14.65;70.51;100007.16;5040691;28;20791;-72
2023/05/15 04:24:06;;;;;;;5.97;4.27;;;;;;;14.68;70.58;100003.84;5030564;28;20413;-73
2023/05/15 04:26:32;;;;;;;4.97;4.57;;;;;;;14.73;70.27;100005.72;5027245;28;20404;-73
2023/05/15 04:28:58;;;;;;;5.80;4.50;;;;;;;14.62;70.90;100002.22;5034104;28;20907;-73
2023/05/15 04:31:24;;;;;;;4.27;4.00;;;;;;;14.61;70.72;100006.06;5029797;28;20478;-73
2023/05/15 04:33:50;;;;;;;4.50;4.00;;;;;;;14.53;71.24;100009.38;5038250;28;20417;-73
2023/05/15 04:36:15;;;;;;;4.77;4.40;;;;;;;14.49;71.32;100013.75;5038841;28;20485;-73
2023/05/15 04:38:41;;;;;;;4.87;4.53;;;;;;;14.53;71.46;100010.19;5038851;28;20387;-73
2023/05/15 04:41:06;;;;;;;4.87;4.47;;;;;;;14.57;70.98;100015.09;5031423;28;20446;-73
2023/05/15 04:43:31;;;;;;;4.57;4.17;;;;;;;14.52;71.34;100008.56;5039848;28;20446;-73
2023/05/15 04:45:57;;;;;;;4.90;4.40;;;;;;;14.52;71.50;100011.28;5042797;28;20415;-73
2023/05/15 04:48:22;;;;;;;4.50;4.17;;;;;;;14.48;71.48;100010.25;5038708;28;20395;-73
2023/05/15 04:50:47;;;;;;;5.17;4.73;;;;;;;14.49;71.20;100006.41;5035688;28;20407;-74
2023/05/15 04:53:13;;;;;;;5.13;4.57;;;;;;;14.41;71.47;100007.00;5032210;28;20460;-73
2023/05/15 04:55:38;;;;;;;5.30;4.57;;;;;;;14.41;71.96;100004.28;5035744;28;20888;-73
2023/05/15 04:58:03;;;;;;;4.87;4.47;;;;;;;14.49;71.65;100008.31;5032024;28;20926;-73
2023/05/15 05:00:29;;;;;;;4.90;4.50;;;;;;;14.53;71.35;100004.75;5039893;28;20411;-73
2023/05/15 05:02:55;;;;;;;6.05;4.45;;;;;;;14.51;71.43;100006.13;5031921;28;20404;-73
2023/05/15 05:05:20;;;;;;;4.40;4.10;;;;;;;14.48;71.40;100003.97;5032585;28;20407;-73
2023/05/15 05:07:45;;;;;;;5.30;4.80;;;;;;;14.58;71.44;100003.09;5039050;28;20752;-73
2023/05/15 05:10:12;;;;;;;5.30;4.80;;;;;;;14.60;71.21;100001.69;5039989;28;20391;-74
2023/05/15 05:12:37;;;;;;;5.25;4.85;;;;;;;14.59;71.71;100005.53;5032596;28;20415;-72
2023/05/15 05:15:03;;;;;;;5.70;5.10;;;;;;;14.54;71.31;100003.66;5040723;28;20511;-73
2023/05/15 05:17:29;;;;;;;5.47;5.03;;;;;;;14.57;71.50;100005.00;5043460;28;20397;-73
2023/05/15 05:19:54;;;;;;;5.28;4.88;;;;;;;14.57;71.91;100006.91;5035252;28;20458;-73
2023/05/15 05:22:20;;;;;;;4.78;4.40;;;;;;;14.69;71.76;100010.09;5026748;28;20880;-73
2023/05/15 05:24:45;;;;;;;6.37;4.83;;;;;;;14.67;71.41;100004.94;5039426;28;20446;-73
2023/05/15 05:27:10;;;;;;;5.20;4.70;;;;;;;14.63;71.81;100009.31;5036714;28;20418;-73
2023/05/15 05:29:36;;;;;;;5.30;4.90;;;;;;;14.68;71.87;100013.94;5038664;28;20443;-74
2023/05/15 05:32:01;;;;;;;5.10;4.70;;;;;;;14.71;72.16;100007.91;5031596;28;20411;-74
2023/05/15 05:34:27;;;;;;;7.47;4.85;;;;;;;14.70;72.34;100018.00;5038259;28;20410;-74
2023/05/15 05:36:52;;;;;;;5.47;4.70;;;;;;;14.71;72.10;100010.66;5031181;28;20430;-74
2023/05/15 05:39:17;;;;;;;4.03;3.72;;;;;;;14.73;72.60;100016.63;5036847;28;20405;-74
2023/05/15 05:41:43;;;;;;;4.87;4.20;;;;;;;14.85;71.98;100020.63;5031944;28;20509;-74
2023/05/15 05:44:09;;;;;;;4.40;3.90;;;;;;;14.82;72.29;100023.91;5031236;28;20410;-74
2023/05/15 05:46:34;;;;;;;4.70;4.30;;;;;;;14.86;72.51;100019.53;5036918;28;20395;-74
2023/05/15 05:48:59;;;;;;;4.83;3.90;;;;;;;15.06;72.09;100030.31;5032402;28;20426;-74
2023/05/15 05:51:25;;;;;;;3.97;3.67;;;;;;;15.23;71.46;100029.91;5039006;28;20482;-74
2023/05/15 05:53:50;;;;;;;5.10;4.63;;;;;;;15.28;71.47;100024.38;5038418;28;20465;-74
2023/05/15 05:56:15;;;;;;;4.20;3.90;;;;;;;15.34;71.31;100012.34;5031314;28;20446;-74
2023/05/15 05:58:41;;;;;;;4.67;3.63;;;;;;;15.33;71.63;100026.25;5025122;28;20401;-74
2023/05/15 06:01:07;;;;;;;4.10;3.70;;;;;;;15.23;71.89;100034.53;5033855;28;20403;-74
2023/05/15 06:03:33;;;;;;;3.63;3.40;;;;;;;15.33;71.79;100026.25;5031973;28;20406;-74
2023/05/15 06:05:59;;;;;;;3.83;3.53;;;;;;;15.43;71.33;100026.19;5039217;28;20388;-74
2023/05/15 06:08:24;;;;;;;3.60;3.30;;;;;;;15.53;71.08;100026.13;5042466;28;20433;-74
2023/05/15 06:10:49;;;;;;;4.00;3.33;;;;;;;15.62;70.66;100026.28;5039695;28;20450;-74
2023/05/15 06:13:14;;;;;;;3.80;3.60;;;;;;;15.58;70.83;100023.31;5038757;28;20414;-74
2023/05/15 06:15:41;;;;;;;4.00;3.70;;;;;;;15.58;70.99;100029.59;5038772;28;20770;-75
2023/05/15 06:18:06;;;;;;;5.22;3.45;;;;;;;15.56;71.25;100031.81;5036636;28;20970;-74
2023/05/15 06:20:31;;;;;;;3.83;3.53;;;;;;;15.49;71.57;100025.88;5042064;28;20417;-74
2023/05/15 06:22:56;;;;;;;3.60;3.40;;;;;;;15.51;71.55;100028.31;5035799;28;20395;-74
2023/05/15 06:25:22;;;;;;;3.37;3.17;;;;;;;15.52;71.72;100029.94;5037763;28;20414;-74
2023/05/15 06:27:47;;;;;;;4.00;3.47;;;;;;;15.49;71.66;100033.25;5035515;28;20894;-74
2023/05/15 06:30:13;;;;;;;5.30;3.80;;;;;;;15.52;71.67;100027.19;5032050;28;20448;-74
2023/05/15 06:32:40;;;;;;;3.87;3.57;;;;;;;15.60;71.54;100026.59;5039029;28;20418;-74
2023/05/15 06:35:06;;;;;;;3.70;3.40;;;;;;;15.67;71.11;100024.34;5038386;28;20387;-74
2023/05/15 06:37:31;;;;;;;3.80;3.50;;;;;;;15.63;71.15;100030.66;5038289;28;20745;-74
2023/05/15 06:39:56;;;;;;;4.05;3.78;;;;;;;15.54;71.41;100031.28;5037102;28;20936;-74
2023/05/15 06:42:22;;;;;;;3.80;3.50;;;;;;;15.61;71.20;100024.69;5038406;28;20393;-74
2023/05/15 06:44:48;;;;;;;4.90;3.10;;;;;;;15.64;70.90;100024.91;5036877;28;20422;-74
2023/05/15 06:47:14;;;;;;;3.60;3.33;;;;;;;15.54;71.45;100025.03;5038784;28;20866;-74
2023/05/15 06:49:39;;;;;;;3.50;3.20;;;;;;;15.56;71.36;100029.09;5039525;28;20443;-74
2023/05/15 06:52:05;;;;;;;4.10;3.70;;;;;;;15.64;71.03;100032.28;5027280;28;20575;-74
2023/05/15 06:54:30;;;;;;;3.40;3.10;;;;;;;15.63;71.26;100030.66;5029884;28;20394;-74
2023/05/15 06:56:58;;;;;;;3.50;3.30;;;;;;;15.58;71.48;100029.59;5036865;28;20428;-74
2023/05/15 06:59:23;;;;;;;3.50;3.22;;;;;;;15.61;71.61;100027.41;5030256;28;20884;-74
2023/05/15 07:01:49;;;;;;;3.20;3.00;;;;;;;15.68;71.43;100025.13;5041271;28;20401;-74
2023/05/15 07:04:14;;;;;;;3.25;3.08;;;;;;;15.87;70.88;100026.84;5036895;28;20453;-74
2023/05/15 07:06:39;;;;;;;3.40;3.20;;;;;;;15.99;70.36;100021.78;5037734;28;20387;-74
2023/05/15 07:09:05;;;;;;;3.30;3.10;;;;;;;16.15;69.17;100021.59;5040176;28;20892;-74
2023/05/15 07:11:32;;;;;;;3.30;3.10;;;;;;;16.11;69.57;100024.09;5041786;28;20401;-74
2023/05/15 07:13:57;;;;;;;3.40;3.15;;;;;;;16.20;69.12;100027.03;5029108;28;20418;-74
2023/05/15 07:16:23;;;;;;;2.83;2.60;;;;;;;16.30;69.38;100029.63;5038009;28;20410;-74
2023/05/15 07:18:48;;;;;;;4.87;2.83;;;;;;;16.21;69.61;100025.91;5038471;28;20438;-74
2023/05/15 07:21:13;;;;;;;3.50;3.20;;;;;;;16.33;69.21;100032.59;5037445;28;20441;-73
2023/05/15 07:23:38;;;;;;;4.47;3.27;;;;;;;16.44;68.61;100031.34;5039565;28;20394;-74
2023/05/15 07:26:04;;;;;;;3.50;3.20;;;;;;;16.61;68.22;100030.88;5036636;28;20391;-74
2023/05/15 07:28:29;;;;;;;3.93;3.00;;;;;;;16.68;68.21;100030.50;5027223;28;20445;-74
2023/05/15 07:30:54;;;;;;;2.87;2.50;;;;;;;16.74;68.11;100032.06;5041244;28;20404;-74
2023/05/15 07:33:20;;;;;;;3.70;2.72;;;;;;;16.81;67.70;100027.84;5040430;28;20551;-74
2023/05/15 07:35:46;;;;;;;2.67;2.57;;;;;;;16.83;67.62;100035.75;5036536;28;20403;-73
2023/05/15 07:38:11;;;;;;;3.20;2.72;;;;;;;16.84;67.27;100034.66;5037787;28;20387;-74
2023/05/15 07:40:36;;;;;;;2.77;2.57;;;;;;;16.92;67.11;100031.25;5039873;28;20929;-74
2023/05/15 07:43:01;;;;;;;3.00;2.78;;;;;;;17.01;66.39;100030.28;5039607;28;20409;-74
2023/05/15 07:45:27;;;;;;;2.90;2.70;;;;;;;17.12;65.36;100033.69;5037610;28;20961;-74
2023/05/15 07:47:53;;;;;;;4.30;2.83;;;;;;;17.22;64.96;100027.22;5037484;28;20399;-74
2023/05/15 07:50:18;;;;;;;2.87;2.67;;;;;;;17.20;65.27;100018.47;5020638;28;20413;-74
2023/05/15 07:52:44;;;;;;;3.03;2.83;;;;;;;17.23;65.31;100024.16;5041365;28;20411;-74
2023/05/15 07:55:10;;;;;;;2.90;2.70;;;;;;;17.26;65.16;100022.75;5039242;28;20400;-74
2023/05/15 07:57:36;;;;;;;3.28;3.08;;;;;;;17.26;65.27;100020.84;5026433;28;20429;-74
2023/05/15 08:00:08;;;;;;;2.88;2.78;;;;;;;17.23;65.35;100023.34;5037807;28;20395;-74
2023/05/15 08:02:33;;;;;;;3.15;2.95;;;;;;;17.23;65.36;100013.22;5041272;28;20437;-75
2023/05/15 08:05:01;;;;;;;3.20;3.00;;;;;;;17.25;65.67;100012.94;5035227;28;20454;-74
2023/05/15 08:07:26;;;;;;;3.47;3.25;;;;;;;17.23;66.04;100009.66;5027455;28;20499;-74
2023/05/15 08:09:52;;;;;;;3.10;2.90;;;;;;;17.22;66.23;100006.13;5034723;28;20427;-74
2023/05/15 08:12:19;;;;;;;6.27;3.07;;;;;;;17.31;65.30;100000.78;5034118;28;20412;-74
2023/05/15 08:14:52;;;;;;;3.30;3.00;;;;;;;17.28;65.87;100002.19;5039346;28;20389;-74
2023/05/15 08:17:19;;;;;;;3.30;3.05;;;;;;;17.33;65.93;100001.28;5037697;28;20399;-74
2023/05/15 08:19:45;;;;;;;3.20;3.00;;;;;;;17.44;65.52;100006.28;5038564;28;20522;-74
2023/05/15 08:22:10;;;;;;;2.60;2.40;;;;;;;17.55;64.81;100004.19;5043061;28;20501;-74
2023/05/15 08:24:36;;;;;;;3.28;2.55;;;;;;;17.60;64.43;99999.47;5041614;28;21002;-75
2023/05/15 08:27:01;;;;;;;2.70;2.50;;;;;;;17.72;63.91;99998.94;5029892;28;20438;-75
2023/05/15 08:29:27;;;;;;;2.73;2.53;;;;;;;17.86;63.42;99999.78;5041153;28;20793;-75
2023/05/15 08:31:52;;;;;;;2.03;1.93;;;;;;;17.95;62.23;100000.69;5042785;28;20755;-75
2023/05/15 08:34:17;;;;;;;2.63;2.47;;;;;;;18.08;61.29;100001.78;5043552;28;20397;-74
2023/05/15 08:36:43;;;;;;;3.30;2.70;;;;;;;18.25;60.89;99992.94;5040692;28;20399;-74
2023/05/15 08:39:08;;;;;;;3.25;3.05;;;;;;;18.46;60.72;100005.13;5040613;28;20406;-74
2023/05/15 08:41:45;;;;;;;2.90;2.70;;;;;;;18.71;60.54;99995.53;5034692;28;20504;-74
2023/05/15 08:44:11;;;;;;;3.03;2.80;;;;;;;18.98;59.82;99989.94;5042002;28;20475;-75
2023/05/15 08:46:37;;;;;;;3.78;3.40;;;;;;;19.22;59.06;99995.13;5040631;28;20387;-74
2023/05/15 08:49:13;;;;;;;4.22;3.10;;;;;;;19.40;58.73;99994.09;5040031;28;20472;-74
2023/05/15 08:51:38;;;;;;;2.87;2.73;;;;;;;19.60;58.16;99986.16;5032748;28;20385;-74
2023/05/15 08:54:04;;;;;;;3.00;2.90;;;;;;;19.75;57.70;99993.22;5042225;28;20405;-74
2023/05/15 08:56:29;;;;;;;3.23;2.70;;;;;;;19.87;57.10;99995.34;5027333;28;20467;-74
2023/05/15 08:58:54;;;;;;;2.67;2.50;;;;;;;19.95;56.03;100000.09;5036025;28;20464;-74
2023/05/15 09:01:20;;;;;;;2.33;2.23;;;;;;;20.07;55.64;99992.84;5042909;28;20783;-74
2023/05/15 09:03:45;;;;;;;2.65;2.55;;;;;;;20.25;54.70;99992.91;5028908;28;20405;-74
2023/05/15 09:06:11;;;;;;;2.63;2.50;;;;;;;20.41;54.95;99986.66;5039017;28;20542;-74
2023/05/15 09:08:38;;;;;;;2.33;2.22;;;;;;;20.60;54.79;99986.34;5040071;28;20406;-74
2023/05/15 09:11:06;;;;;;;2.58;2.38;;;;;;;20.66;54.31;99990.56;5041050;28;20392;-74
2023/05/15 09:13:31;;;;;;;3.50;2.53;;;;;;;20.72;54.29;99981.00;5043519;28;20416;-74
2023/05/15 09:15:57;;;;;;;2.40;2.25;;;;;;;20.94;53.76;99980.84;5038764;28;20484;-74
2023/05/15 09:18:22;;;;;;;2.40;2.20;;;;;;;21.06;51.95;99985.69;5031352;28;20763;-74
2023/05/15 09:20:48;;;;;;;2.83;2.63;;;;;;;21.30;52.08;99979.69;5041465;28;20403;-73
2023/05/15 09:23:27;;;;;;;4.03;2.47;;;;;;;21.46;51.11;99978.03;5041655;28;20516;-73
2023/05/15 09:25:54;;;;;;;3.90;2.45;;;;;;;21.68;50.59;99986.06;5027977;28;20395;-74
2023/05/15 09:28:27;;;;;;;2.22;2.08;;;;;;;21.93;50.10;99982.41;5039296;28;20402;-74
2023/05/15 09:31:04;;;;;;;2.45;2.17;;;;;;;22.17;48.99;99982.63;5041742;28;20752;-74
2023/05/15 09:33:34;;;;;;;5.53;5.13;;;;;;;22.39;48.31;99969.69;5029883;28;20428;-74
2023/05/15 09:36:01;;;;;;;14.33;9.60;;;;;;;22.52;48.80;99963.91;5039452;28;20418;-74
2023/05/15 09:38:26;;;;;;;255.02;90.15;;;;;;;22.88;47.34;99965.28;5040532;28;20399;-74
2023/05/15 09:41:06;;;;;;;54.50;29.70;;;;;;;23.32;47.23;99958.16;5043050;28;20445;-74
2023/05/15 09:43:39;;;;;;;1395.05;365.92;;;;;;;23.76;46.92;99955.41;5030067;28;20429;-74
2023/05/15 09:46:05;;;;;;;1999.90;999.90;;;;;;;24.17;46.22;99956.38;5035301;28;20900;-74
2023/05/15 09:48:31;;;;;;;1999.90;999.90;;;;;;;24.55;44.84;99956.75;5035374;28;20904;-74
2023/05/15 09:50:57;;;;;;;1999.90;999.90;;;;;;;23.82;45.28;99957.94;5042390;28;20474;-74
2023/05/15 09:53:23;;;;;;;1999.90;999.90;;;;;;;22.95;45.62;99957.25;5038961;28;20499;-74
2023/05/15 09:55:51;;;;;;;1999.90;999.90;;;;;;;22.52;46.67;99952.88;5038182;28;20391;-74
2023/05/15 09:58:17;;;;;;;1999.90;718.10;;;;;;;23.15;46.51;99953.63;5041338;28;20405;-74
2023/05/15 10:00:45;;;;;;;1999.90;999.90;;;;;;;24.96;42.67;99947.28;5037782;28;20751;-74
2023/05/15 10:03:10;;;;;;;1999.90;999.90;;;;;;;25.85;40.59;99947.72;5031678;28;20399;-73
2023/05/15 10:05:37;;;;;;;1999.90;999.90;;;;;;;26.16;39.56;99941.31;5038743;28;20417;-74
2023/05/15 10:08:02;;;;;;;1999.90;999.90;;;;;;;26.33;39.46;99940.94;5039994;28;20403;-74
2023/05/15 10:10:29;;;;;;;1999.90;999.90;;;;;;;26.92;39.11;99942.63;5037339;28;20415;-74
2023/05/15 10:13:02;;;;;;;1999.90;952.97;;;;;;;27.17;38.24;99943.91;5028851;28;20415;-74
2023/05/15 10:15:27;;;;;;;1.90;1.80;;;;;;;27.55;36.74;99938.31;5031960;28;20411;-74
2023/05/15 10:17:53;;;;;;;1.90;1.80;;;;;;;27.81;35.62;99930.03;5035603;28;20536;-73
2023/05/15 10:20:23;;;;;;;1.97;1.87;;;;;;;28.26;35.41;99923.56;5030797;28;20409;-74
2023/05/15 10:22:50;;;;;;;2.35;2.13;;;;;;;28.25;35.46;99929.53;5031324;28;20496;-74
2023/05/15 10:25:41;;;;;;;1.60;1.55;;;;;;;28.44;35.16;99929.41;5038647;28;20398;-74
2023/05/15 10:28:08;;;;;;;2.40;1.30;;;;;;;28.75;34.02;99923.47;5032296;28;20413;-74
2023/05/15 10:30:35;;;;;;;1.90;1.80;;;;;;;28.29;33.42;99917.25;5033845;28;20454;-74
2023/05/15 10:33:03;;;;;;;1.70;1.60;;;;;;;27.38;34.30;99912.91;5029561;28;20409;-72
2023/05/15 10:35:29;;;;;;;2.55;2.00;;;;;;;26.26;36.22;99919.38;5023008;28;20415;-72
2023/05/15 10:37:55;;;;;;;1.92;1.83;;;;;;;25.30;38.55;99916.16;5024229;28;20414;-72
2023/05/15 10:40:22;;;;;;;1.92;1.83;;;;;;;24.70;39.08;99910.88;5031566;28;20813;-72
2023/05/15 10:42:47;;;;;;;1.88;1.80;;;;;;;24.44;39.48;99916.84;5055046;28;20804;-72
2023/05/15 10:45:13;;;;;;;3.30;2.07;;;;;;;24.35;40.06;99913.41;5030246;28;20405;-72
2023/05/15 10:47:40;;;;;;;4.13;1.57;;;;;;;25.09;38.75;99918.34;5041731;28;20734;-71
2023/05/15 10:50:07;;;;;;;2.53;0.90;;;;;;;24.14;38.91;99921.03;5037839;28;20394;-74
2023/05/15 10:52:33;;;;;;;1.07;0.80;;;;;;;23.47;39.27;99925.19;5036585;28;20469;-74
2023/05/15 10:54:59;;;;;;;0.60;0.60;;;;;;;23.11;40.03;99922.28;5036092;28;20426;-72
2023/05/15 10:57:27;;;;;;;1.60;0.70;;;;;;;22.80;40.15;99919.97;5039396;28;20393;-72
2023/05/15 10:59:53;;;;;;;1.20;0.50;;;;;;;22.38;40.94;99919.19;5039972;28;20397;-73
2023/05/15 11:02:24;;;;;;;0.93;0.60;;;;;;;22.16;41.22;99920.28;5035480;28;20417;-72
2023/05/15 11:04:55;;;;;;;1.30;0.55;;;;;;;21.94;41.93;99917.00;5036573;28;20438;-72
2023/05/15 11:07:22;;;;;;;2.20;2.10;;;;;;;21.56;43.07;99909.56;5030252;28;20910;-74
2023/05/15 11:09:48;;;;;;;122.90;113.13;;;;;;;21.48;43.59;99906.81;5039812;28;20385;-74
2023/05/15 11:12:13;;;;;;;1999.90;999.90;;;;;;;21.36;44.77;99912.22;5030492;28;20456;-74
2023/05/15 11:15:02;;;;;;;1999.90;999.90;;;;;;;21.16;45.41;99908.22;5037956;28;20469;-74
2023/05/15 11:17:31;;;;;;;1999.90;999.90;;;;;;;20.96;45.88;99909.69;5021144;28;20410;-73
2023/05/15 11:19:58;;;;;;;1999.90;999.90;;;;;;;20.82;45.64;99906.31;5029149;28;20399;-73
2023/05/15 11:22:29;;;;;;;1999.90;999.90;;;;;;;20.49;47.71;99903.25;5017766;28;20411;-74
2023/05/15 11:24:59;;;;;;;1999.90;999.90;;;;;;;20.36;48.88;99903.41;5023078;28;20522;-74
2023/05/15 11:27:30;;;;;;;1999.90;999.90;;;;;;;20.25;49.87;99902.91;5034611;28;20433;-74